Time;durP1;ratioP1;P1;durP2;ratioP2;P2;SDS_P1;SDS_P2;PMS_P1;PMS_P2;Temp;Humidity;BMP_temperature;BMP_pressure;BME280_temperature;BME280_humidity;BME280_pressure;Samples;Min_cycle;Max_cycle;Signal;HPM_P1;HPM_P2
2023/05/02 00:01:24;;;;;;;2.45;1.75;;;;;;;12.81;100.00;97909.22;5035284;28;20042;-94
2023/05/02 00:03:50;;;;;;;3.22;1.50;;;;;;;12.66;100.00;97892.16;5029289;28;20061;-93
2023/05/02 00:06:16;;;;;;;2.20;1.70;;;;;;;12.64;100.00;97886.06;5033826;28;20527;-95
2023/05/02 00:08:42;;;;;;;2.47;1.50;;;;;;;12.77;100.00;97907.63;5023254;28;20069;-94
2023/05/02 00:11:07;;;;;;;2.80;1.52;;;;;;;12.71;100.00;97902.63;5022605;28;20494;-94
2023/05/02 00:13:35;;;;;;;2.13;1.60;;;;;;;12.54;100.00;97874.13;5019494;28;20041;-94
2023/05/02 00:16:01;;;;;;;2.35;1.40;;;;;;;12.62;100.00;97879.94;5019151;28;20033;-94
2023/05/02 00:18:26;;;;;;;3.42;1.98;;;;;;;12.65;100.00;97893.13;5019030;28;20153;-93
2023/05/02 00:20:54;;;;;;;2.13;1.90;;;;;;;12.62;100.00;97876.41;5011265;28;20046;-93
2023/05/02 00:23:20;;;;;;;2.65;2.13;;;;;;;12.66;100.00;97891.31;5016119;28;20100;-93
2023/05/02 00:25:45;;;;;;;3.95;2.05;;;;;;;12.76;100.00;97894.41;5015442;28;20050;-93
2023/05/02 00:28:12;;;;;;;3.13;2.28;;;;;;;12.78;100.00;97890.72;5013252;28;20103;-93
2023/05/02 00:30:43;;;;;;;2.97;2.20;;;;;;;12.84;100.00;97889.56;5018130;28;20053;-93
2023/05/02 00:33:09;;;;;;;3.90;2.30;;;;;;;12.83;100.00;97885.13;5018143;28;20386;-93
2023/05/02 00:35:35;;;;;;;4.07;2.45;;;;;;;12.86;100.00;97879.63;5020455;28;20057;-93
2023/05/02 00:38:01;;;;;;;3.67;2.33;;;;;;;12.68;100.00;97852.09;5030555;28;20033;-94
2023/05/02 00:40:26;;;;;;;3.95;2.88;;;;;;;12.85;100.00;97880.59;5034747;28;20495;-93
2023/05/02 00:42:52;;;;;;;4.07;2.67;;;;;;;12.76;100.00;97865.91;5017527;28;20049;-94
2023/05/02 00:45:18;;;;;;;3.92;2.58;;;;;;;12.67;100.00;97847.72;5037042;28;20092;-94
2023/05/02 00:47:46;;;;;;;4.00;2.60;;;;;;;12.87;100.00;97873.38;5022540;28;20041;-93
2023/05/02 00:50:12;;;;;;;3.70;2.67;;;;;;;12.83;100.00;97867.31;5017875;28;20045;-95
2023/05/02 00:52:38;;;;;;;3.42;2.42;;;;;;;12.86;100.00;97860.97;5017836;28;20045;-94
2023/05/02 00:55:05;;;;;;;3.88;2.40;;;;;;;12.92;100.00;97863.31;5030584;28;20071;-93
2023/05/02 00:57:32;;;;;;;3.95;2.28;;;;;;;12.90;100.00;97863.41;5017147;28;20057;-93
2023/05/02 00:59:58;;;;;;;3.45;2.30;;;;;;;12.81;100.00;97857.66;5015357;28;20045;-93
2023/05/02 01:02:36;;;;;;;4.97;2.10;;;;;;;12.94;100.00;97874.78;5017726;28;20095;-94
2023/05/02 01:05:10;;;;;;;3.88;2.40;;;;;;;12.92;100.00;97861.53;5024368;28;20056;-93
2023/05/02 01:07:50;;;;;;;2.65;2.10;;;;;;;12.94;100.00;97851.63;5031074;28;20049;-95
2023/05/02 01:10:27;;;;;;;3.00;2.20;;;;;;;12.98;100.00;97855.00;5030706;28;20051;-94
2023/05/02 01:12:59;;;;;;;3.20;2.17;;;;;;;13.07;100.00;97873.19;5029808;28;20404;-93
2023/05/02 01:15:26;;;;;;;2.92;2.13;;;;;;;12.93;100.00;97836.56;5034250;28;20128;-95
2023/05/02 01:17:55;;;;;;;4.72;1.92;;;;;;;12.98;100.00;97835.47;5019282;28;20037;-94
2023/05/02 01:20:25;;;;;;;4.03;2.10;;;;;;;13.05;100.00;97853.72;5017498;28;20511;-93
2023/05/02 01:22:51;;;;;;;3.88;2.38;;;;;;;12.93;100.00;97844.56;5017323;28;20434;-94
2023/05/02 01:25:29;;;;;;;3.50;2.20;;;;;;;13.04;100.00;97861.84;5020965;28;20045;-94
2023/05/02 01:28:05;;;;;;;4.22;2.30;;;;;;;12.93;100.00;97843.72;5017284;28;20562;-94
2023/05/02 01:30:35;;;;;;;3.72;2.30;;;;;;;12.86;100.00;97848.50;5017048;28;20045;-93
2023/05/02 01:33:06;;;;;;;3.65;2.30;;;;;;;12.84;100.00;97846.88;5018046;28;20121;-93
2023/05/02 01:35:34;;;;;;;3.78;2.50;;;;;;;12.86;100.00;97861.84;5019102;28;20056;-94
2023/05/02 01:38:02;;;;;;;3.72;2.42;;;;;;;12.84;100.00;97846.88;5031815;28;20429;-94
2023/05/02 01:40:29;;;;;;;3.45;2.20;;;;;;;12.93;100.00;97857.91;5017090;28;20048;-94
2023/05/02 01:42:57;;;;;;;3.97;2.30;;;;;;;12.88;100.00;97838.63;5026467;28;20072;-94
2023/05/02 01:45:26;;;;;;;3.65;2.17;;;;;;;12.79;100.00;97819.53;5027034;28;20495;-92
2023/05/02 01:47:54;;;;;;;4.30;2.40;;;;;;;12.86;100.00;97831.59;5021384;28;20049;-93
2023/05/02 01:50:23;;;;;;;3.83;2.20;;;;;;;12.93;100.00;97838.38;5019585;28;20080;-95
2023/05/02 01:52:51;;;;;;;4.57;2.15;;;;;;;12.80;100.00;97814.13;5019511;28;20045;-94
2023/05/02 01:55:21;;;;;;;2.92;2.20;;;;;;;12.94;100.00;97834.75;5016784;28;20461;-93
2023/05/02 01:57:53;;;;;;;2.97;2.10;;;;;;;12.98;100.00;97830.13;5019559;28;20042;-93
2023/05/02 02:00:20;;;;;;;3.33;2.30;;;;;;;13.03;100.00;97844.09;5016671;28;20059;-95
2023/05/02 02:02:47;;;;;;;3.67;2.40;;;;;;;13.00;100.00;97841.59;5016652;28;20041;-93
2023/05/02 02:05:17;;;;;;;4.07;2.35;;;;;;;13.00;100.00;97846.94;5020666;28;20140;-94
2023/05/02 02:07:43;;;;;;;4.18;2.25;;;;;;;12.92;100.00;97824.19;5016911;28;20041;-93
2023/05/02 02:10:10;;;;;;;3.00;2.33;;;;;;;12.86;100.00;97835.16;5028734;28;20057;-94
2023/05/02 02:12:40;;;;;;;2.60;2.00;;;;;;;12.81;100.00;97829.19;5020707;28;20041;-94
2023/05/02 02:15:15;;;;;;;4.00;2.38;;;;;;;12.86;100.00;97843.16;5021035;28;20088;-93
2023/05/02 02:17:45;;;;;;;3.08;2.10;;;;;;;12.68;100.00;97825.41;5007116;28;20049;-95
2023/05/02 02:20:12;;;;;;;3.10;2.10;;;;;;;12.74;100.00;97838.44;5025667;28;20042;-93
2023/05/02 02:22:41;;;;;;;2.97;1.90;;;;;;;12.58;100.00;97830.38;5016336;28;20045;-94
2023/05/02 02:25:10;;;;;;;2.60;2.00;;;;;;;12.36;100.00;97805.69;5025576;28;20059;-93
2023/05/02 02:27:36;;;;;;;2.58;2.03;;;;;;;12.38;100.00;97820.66;5017220;28;20045;-93
2023/05/02 02:30:03;;;;;;;3.05;2.17;;;;;;;12.17;100.00;97822.59;5021341;28;20132;-95
2023/05/02 02:32:29;;;;;;;3.63;2.00;;;;;;;12.07;100.00;97816.00;5017035;28;20057;-93
2023/05/02 02:34:55;;;;;;;3.85;2.30;;;;;;;12.01;100.00;97818.94;5014583;28;20430;-92
2023/05/02 02:37:28;;;;;;;5.05;2.00;;;;;;;11.97;100.00;97820.91;5018274;28;20052;-94
2023/05/02 02:40:03;;;;;;;2.75;1.83;;;;;;;11.86;100.00;97817.84;5017727;28;20050;-93
2023/05/02 02:42:38;;;;;;;2.38;1.75;;;;;;;11.68;100.00;97817.78;5016532;28;20084;-94
2023/05/02 02:45:11;;;;;;;2.95;1.83;;;;;;;11.42;100.00;97791.50;5013131;28;20047;-93
2023/05/02 02:47:42;;;;;;;2.40;1.80;;;;;;;11.58;100.00;97827.16;5014714;28;20053;-93
2023/05/02 02:50:15;;;;;;;1.75;1.50;;;;;;;11.50;100.00;97823.97;5032593;28;20509;-93
2023/05/02 02:52:51;;;;;;;1.88;1.60;;;;;;;11.44;100.00;97819.78;5025929;28;20139;-94
2023/05/02 02:55:29;;;;;;;2.78;1.70;;;;;;;11.50;100.00;97831.94;5039612;28;20041;-92
2023/05/02 02:57:59;;;;;;;2.97;1.73;;;;;;;11.39;100.00;97808.47;5024843;28;20057;-94
2023/05/02 03:00:27;;;;;;;1.77;1.50;;;;;;;11.44;100.00;97819.78;5026563;28;20384;-94
2023/05/02 03:02:54;;;;;;;2.72;1.63;;;;;;;11.41;100.00;97819.94;5020000;28;20037;-93
2023/05/02 03:05:21;;;;;;;2.92;1.95;;;;;;;11.30;100.00;97812.44;5016050;28;20120;-93
2023/05/02 03:07:48;;;;;;;3.78;2.10;;;;;;;11.35;100.00;97816.69;5017242;28;20034;-93
2023/05/02 03:10:14;;;;;;;4.05;2.40;;;;;;;11.38;100.00;97819.19;5016098;28;20497;-93
2023/05/02 03:12:42;;;;;;;4.07;2.40;;;;;;;11.29;100.00;97796.53;5025504;28;20068;-93
2023/05/02 03:15:23;;;;;;;3.65;2.38;;;;;;;11.48;100.00;97833.81;5021268;28;20065;-93
2023/05/02 03:17:48;;;;;;;3.85;2.45;;;;;;;11.37;100.00;97814.81;5022729;28;20067;-93
2023/05/02 03:20:14;;;;;;;3.90;2.50;;;;;;;11.42;100.00;97813.66;5017835;28;20566;-94
2023/05/02 03:22:40;;;;;;;5.47;2.97;;;;;;;11.45;100.00;97818.84;5021271;28;20045;-94
2023/05/02 03:25:07;;;;;;;4.38;2.72;;;;;;;11.36;100.00;97811.25;5026710;28;20495;-92
2023/05/02 03:27:33;;;;;;;4.47;2.80;;;;;;;11.39;100.00;97820.94;5020933;28;20053;-93
2023/05/02 03:30:01;;;;;;;4.13;3.00;;;;;;;11.52;100.00;97840.75;5021215;28;20052;-93
2023/05/02 03:32:27;;;;;;;4.57;3.03;;;;;;;11.28;100.00;97798.31;5027137;28;20038;-93
2023/05/02 03:34:57;;;;;;;4.50;3.20;;;;;;;11.37;100.00;97805.03;5023662;28;20091;-94
2023/05/02 03:37:23;;;;;;;4.50;3.10;;;;;;;11.49;100.00;97825.78;5019703;28;20050;-94
2023/05/02 03:39:49;;;;;;;6.80;3.70;;;;;;;11.49;100.00;97827.53;5024410;28;20514;-92
2023/05/02 03:42:14;;;;;;;5.22;3.50;;;;;;;11.34;100.00;97797.16;5019203;28;20072;-93
2023/05/02 03:44:40;;;;;;;4.15;3.20;;;;;;;11.47;100.00;97832.97;5035398;28;20114;-93
2023/05/02 03:47:08;;;;;;;4.40;3.10;;;;;;;11.26;100.00;97804.66;5027935;28;20100;-94
2023/05/02 03:49:36;;;;;;;4.43;3.30;;;;;;;11.29;100.00;97815.16;5023141;28;20061;-93
2023/05/02 03:52:02;;;;;;;6.45;3.70;;;;;;;11.27;100.00;97814.34;5018837;28;20117;-93
2023/05/02 03:54:31;;;;;;;5.00;3.58;;;;;;;11.16;100.00;97800.69;5021564;28;20041;-93
2023/05/02 03:56:57;;;;;;;6.60;4.15;;;;;;;11.18;100.00;97807.66;5018921;28;20157;-92
2023/05/02 03:59:23;;;;;;;5.82;3.95;;;;;;;11.12;100.00;97802.59;5035553;28;20047;-93
2023/05/02 04:01:49;;;;;;;7.75;4.20;;;;;;;11.21;100.00;97825.28;5028646;28;20128;-94
2023/05/02 04:04:16;;;;;;;5.82;3.90;;;;;;;11.31;100.00;97837.25;5018667;28;20041;-94
2023/05/02 04:06:42;;;;;;;5.88;3.95;;;;;;;11.47;100.00;97858.69;5021255;28;20514;-92
2023/05/02 04:09:08;;;;;;;5.65;4.15;;;;;;;11.50;100.00;97861.25;5033996;28;20076;-93
2023/05/02 04:11:34;;;;;;;5.88;3.90;;;;;;;11.27;100.00;97814.34;5033837;28;20050;-96
2023/05/02 04:14:00;;;;;;;5.63;4.13;;;;;;;11.30;100.00;97825.75;5026434;28;20046;-94
2023/05/02 04:16:26;;;;;;;7.20;3.97;;;;;;;11.41;100.00;97840.38;5004082;28;20045;-94
2023/05/02 04:18:52;;;;;;;7.78;4.22;;;;;;;11.28;100.00;97838.25;5020871;28;20152;-93
2023/05/02 04:21:19;;;;;;;9.35;4.38;;;;;;;11.35;100.00;97843.31;5034918;28;20055;-94
2023/05/02 04:23:45;;;;;;;8.93;4.43;;;;;;;11.37;100.00;97830.78;5022533;28;20491;-94
2023/05/02 04:26:11;;;;;;;6.32;4.72;;;;;;;11.40;100.00;97842.13;5032058;28;20037;-95
2023/05/02 04:28:36;;;;;;;8.00;4.63;;;;;;;11.50;100.00;97858.56;5026551;28;20050;-94
2023/05/02 04:31:03;;;;;;;6.93;4.53;;;;;;;11.55;100.00;97853.91;5025841;28;20087;-93
2023/05/02 04:33:29;;;;;;;7.90;5.13;;;;;;;11.74;100.00;97872.56;5029459;28;20045;-94
2023/05/02 04:35:55;;;;;;;7.30;4.45;;;;;;;11.61;100.00;97847.44;5024768;28;20041;-93
2023/05/02 04:38:23;;;;;;;6.95;4.15;;;;;;;11.76;100.00;97861.84;5018255;28;20064;-95
2023/05/02 04:40:50;;;;;;;6.60;3.90;;;;;;;11.83;100.00;97872.13;5026444;28;20136;-95
2023/05/02 04:43:16;;;;;;;5.78;3.63;;;;;;;11.88;100.00;97870.16;5016739;28;20072;-93
2023/05/02 04:45:41;;;;;;;4.82;3.13;;;;;;;11.84;100.00;97849.00;5017870;28;20068;-93
2023/05/02 04:48:07;;;;;;;4.25;2.97;;;;;;;12.00;100.00;97876.72;5018532;28;20134;-93
2023/05/02 04:50:33;;;;;;;6.45;3.13;;;;;;;12.03;100.00;97862.38;5018349;28;20384;-94
2023/05/02 04:52:59;;;;;;;6.32;2.83;;;;;;;12.18;100.00;97876.78;5000430;28;20135;-94
2023/05/02 04:55:26;;;;;;;4.00;2.60;;;;;;;12.19;100.00;97868.72;4998356;28;20042;-93
2023/05/02 04:57:52;;;;;;;5.55;2.70;;;;;;;12.36;100.00;97891.00;5008484;28;20042;-94
2023/05/02 05:00:18;;;;;;;5.30;3.22;;;;;;;12.38;100.00;97887.31;5021891;28;20095;-94
2023/05/02 05:02:44;;;;;;;3.92;2.90;;;;;;;12.54;100.00;97904.31;5016165;28;20061;-93
2023/05/02 05:05:10;;;;;;;5.57;3.38;;;;;;;12.52;100.00;97895.53;5010195;28;20076;-94
2023/05/02 05:07:36;;;;;;;6.32;3.22;;;;;;;12.62;100.00;97895.06;5017810;28;20071;-94
2023/05/02 05:10:02;;;;;;;7.55;3.50;;;;;;;12.79;100.00;97908.44;5017739;28;20384;-94
2023/05/02 05:12:29;;;;;;;4.55;3.13;;;;;;;12.84;100.00;97908.22;5017780;28;20407;-94
2023/05/02 05:14:56;;;;;;;5.60;3.45;;;;;;;12.89;100.00;97900.84;5017614;28;20047;-95
2023/05/02 05:17:22;;;;;;;4.70;3.00;;;;;;;12.86;100.00;97885.84;5018270;28;20041;-93
2023/05/02 05:19:47;;;;;;;6.60;3.08;;;;;;;12.90;100.00;97892.78;5014924;28;20049;-94
2023/05/02 05:22:14;;;;;;;4.80;2.80;;;;;;;13.04;100.00;97900.06;5021604;28;20049;-94
2023/05/02 05:24:40;;;;;;;3.33;2.50;;;;;;;13.18;100.00;97923.38;5006616;28;20046;-94
2023/05/02 05:27:05;;;;;;;4.18;2.72;;;;;;;13.29;100.00;97922.84;4997715;28;20617;-95
2023/05/02 05:29:33;;;;;;;4.15;2.97;;;;;;;13.32;100.00;97920.03;5001312;28;20049;-93
2023/05/02 05:32:00;;;;;;;3.38;2.60;;;;;;;13.14;100.00;97892.44;5014410;28;20056;-94
2023/05/02 05:34:26;;;;;;;5.35;2.80;;;;;;;13.09;100.00;97882.00;5008218;28;20526;-95
2023/05/02 05:36:52;;;;;;;4.13;2.67;;;;;;;13.34;100.00;97915.50;4998699;28;20038;-95
2023/05/02 05:39:19;;;;;;;4.47;2.80;;;;;;;13.27;100.00;97893.56;4998120;28;20057;-94
2023/05/02 05:41:46;;;;;;;5.65;2.80;;;;;;;13.26;100.00;97886.47;4997227;28;20500;-95
2023/05/02 05:44:12;;;;;;;3.22;2.40;;;;;;;13.58;100.00;97924.03;4997460;28;20065;-95
2023/05/02 05:46:39;;;;;;;4.97;2.50;;;;;;;13.57;100.00;97914.25;4997638;28;20065;-95
2023/05/02 05:49:05;;;;;;;4.32;2.88;;;;;;;13.66;100.00;97913.78;4997565;28;20042;-93
2023/05/02 05:51:31;;;;;;;4.18;2.72;;;;;;;13.71;100.00;97916.22;4997651;28;20145;-94
2023/05/02 05:53:57;;;;;;;5.03;2.95;;;;;;;13.74;100.00;97916.91;4997461;28;20045;-94
2023/05/02 05:56:23;;;;;;;6.65;3.15;;;;;;;13.86;100.00;97917.22;4997712;28;20046;-94
2023/05/02 05:58:49;;;;;;;5.05;3.05;;;;;;;13.81;100.00;97911.22;5013631;28;20095;-94
2023/05/02 06:01:14;;;;;;;4.78;2.70;;;;;;;13.77;100.00;97897.19;5010996;28;20041;-93
2023/05/02 06:03:42;;;;;;;3.97;2.40;;;;;;;13.90;100.00;97908.06;5000740;28;20061;-92
2023/05/02 06:06:07;;;;;;;3.50;2.45;;;;;;;13.66;100.00;97907.56;4998194;28;20038;-92
2023/05/02 06:08:33;;;;;;;3.70;2.53;;;;;;;13.48;100.00;97909.41;5001625;28;20052;-91
2023/05/02 06:10:59;;;;;;;3.33;2.25;;;;;;;13.61;100.00;97914.97;4999324;28;20046;-91
2023/05/02 06:13:25;;;;;;;4.00;2.40;;;;;;;13.68;100.00;97919.91;5005885;28;20391;-91
2023/05/02 06:15:51;;;;;;;3.75;2.47;;;;;;;13.78;100.00;97920.28;4999417;28;20537;-92
2023/05/02 06:18:17;;;;;;;5.50;3.33;;;;;;;13.96;100.00;97939.78;4997391;28;20034;-92
2023/05/02 06:20:44;;;;;;;3.20;2.17;;;;;;;14.10;100.00;97936.41;4997369;28;20132;-93
2023/05/02 06:23:10;;;;;;;3.05;2.28;;;;;;;14.17;100.00;97925.25;5002916;28;20099;-94
2023/05/02 06:25:39;;;;;;;4.80;2.22;;;;;;;14.17;100.00;97925.25;5024468;28;20037;-94
2023/05/02 06:28:05;;;;;;;3.60;2.22;;;;;;;14.32;100.00;97920.88;5019122;28;20045;-93
2023/05/02 06:30:30;;;;;;;3.72;2.40;;;;;;;14.50;100.00;97926.16;5024923;28;20044;-93
2023/05/02 06:32:56;;;;;;;2.75;1.95;;;;;;;14.73;100.00;97946.28;5022216;28;20415;-92
2023/05/02 06:35:22;;;;;;;4.68;2.45;;;;;;;14.73;100.00;97925.72;5019940;28;20388;-93
2023/05/02 06:37:49;;;;;;;3.20;2.30;;;;;;;14.96;100.00;97921.75;5023761;28;20034;-93
2023/05/02 06:40:15;;;;;;;3.47;2.35;;;;;;;15.22;100.00;97931.84;5019313;28;20132;-93
2023/05/02 06:42:41;;;;;;;5.47;2.67;;;;;;;15.23;100.00;97920.19;5016118;28;20128;-93
2023/05/02 06:45:07;;;;;;;4.85;2.70;;;;;;;15.43;100.00;97946.63;5015754;28;20656;-94
2023/05/02 06:47:33;;;;;;;7.07;3.90;;;;;;;15.47;100.00;97942.81;5018858;28;20393;-93
2023/05/02 06:49:59;;;;;;;4.50;2.85;;;;;;;15.44;100.00;97934.97;5024910;28;20133;-94
2023/05/02 06:52:25;;;;;;;3.67;2.60;;;;;;;15.67;100.00;97952.34;5019272;28;20042;-93
2023/05/02 06:54:52;;;;;;;3.70;2.70;;;;;;;15.77;100.00;97934.78;5020158;28;20128;-93
2023/05/02 06:57:18;;;;;;;4.80;2.65;;;;;;;15.85;97.75;97922.69;5028081;28;20038;-93
2023/05/02 06:59:44;;;;;;;5.82;2.80;;;;;;;16.02;96.17;97919.81;5020409;28;20042;-93
2023/05/02 07:02:10;;;;;;;4.25;2.50;;;;;;;16.34;95.49;97939.25;5020758;28;20038;-93
2023/05/02 07:04:36;;;;;;;4.75;2.75;;;;;;;16.69;91.78;97956.72;5023545;28;20034;-93
2023/05/02 07:07:02;;;;;;;5.63;3.10;;;;;;;16.84;91.81;97955.75;5026249;28;20099;-94
2023/05/02 07:09:28;;;;;;;4.93;3.20;;;;;;;16.95;90.58;97973.84;5024888;28;20537;-93
2023/05/02 07:11:55;;;;;;;7.93;3.20;;;;;;;16.96;90.44;97938.84;5022025;28;20034;-94
2023/05/02 07:14:21;;;;;;;9.65;3.45;;;;;;;17.33;89.57;97965.09;5023463;28;20029;-94
2023/05/02 07:16:47;;;;;;;6.28;3.42;;;;;;;17.38;87.87;97947.66;5021381;28;20042;-94
2023/05/02 07:19:13;;;;;;;6.95;3.70;;;;;;;17.80;88.00;97975.28;5021325;28;20038;-94
2023/05/02 07:21:39;;;;;;;6.60;3.38;;;;;;;17.69;85.13;97963.53;5024883;28;20053;-93
2023/05/02 07:24:05;;;;;;;4.72;3.40;;;;;;;17.73;84.27;97952.44;5021942;28;20459;-93
2023/05/02 07:26:31;;;;;;;8.65;3.50;;;;;;;17.82;85.20;97949.16;5023259;28;20085;-94
2023/05/02 07:28:58;;;;;;;4.90;3.20;;;;;;;18.04;82.99;97947.63;5032238;28;20122;-93
2023/05/02 07:31:24;;;;;;;4.70;3.20;;;;;;;18.07;81.77;97952.81;5023694;28;20046;-93
2023/05/02 07:33:50;;;;;;;4.97;3.10;;;;;;;17.79;80.72;97932.34;5023907;28;20091;-94
2023/05/02 07:36:16;;;;;;;8.07;3.05;;;;;;;17.61;82.79;97937.19;5020541;28;20095;-93
2023/05/02 07:38:42;;;;;;;4.63;3.00;;;;;;;17.78;82.77;97944.94;5028162;28;20041;-93
2023/05/02 07:41:08;;;;;;;5.05;3.15;;;;;;;18.05;82.46;97934.09;5023228;28;20047;-93
2023/05/02 07:43:34;;;;;;;4.55;3.03;;;;;;;18.55;81.14;97963.72;5033425;28;20037;-95
2023/05/02 07:46:05;;;;;;;4.63;3.03;;;;;;;17.73;79.47;97946.22;5034132;28;20041;-93
2023/05/02 07:48:31;;;;;;;4.75;3.15;;;;;;;17.64;80.25;97956.63;5026504;28;20076;-93
2023/05/02 07:51:05;;;;;;;6.35;3.20;;;;;;;17.67;81.06;97955.56;5026032;28;20061;-94
2023/05/02 07:53:31;;;;;;;5.07;3.05;;;;;;;17.65;81.66;97957.50;5019792;28;20049;-94
2023/05/02 07:55:56;;;;;;;5.25;3.00;;;;;;;17.79;79.25;97968.16;5018365;28;20041;-94
2023/05/02 07:58:22;;;;;;;7.13;4.35;;;;;;;17.76;79.27;97975.56;5023131;28;20574;-94
2023/05/02 08:00:49;;;;;;;6.95;3.75;;;;;;;17.47;79.59;97967.69;5019674;28;20053;-94
2023/05/02 08:03:16;;;;;;;5.72;3.45;;;;;;;17.63;82.63;97970.16;5018922;28;20586;-93
2023/05/02 08:05:42;;;;;;;5.00;3.13;;;;;;;17.97;81.01;97963.34;5019281;28;20046;-94
2023/05/02 08:08:10;;;;;;;4.45;3.13;;;;;;;18.36;77.39;97984.88;4999385;28;20534;-92
2023/05/02 08:10:36;;;;;;;4.50;2.83;;;;;;;18.24;76.07;97949.78;5014378;28;20399;-91
2023/05/02 08:13:02;;;;;;;4.88;2.85;;;;;;;18.31;76.76;97976.28;5026207;28;20046;-95
2023/05/02 08:15:29;;;;;;;4.53;2.83;;;;;;;18.12;77.76;97980.25;5035337;28;20045;-94
2023/05/02 08:17:55;;;;;;;5.18;2.75;;;;;;;17.96;76.91;97948.19;5035269;28;20037;-93
2023/05/02 08:20:22;;;;;;;6.13;2.83;;;;;;;18.12;78.46;97988.31;5034902;28;20099;-93
2023/05/02 08:22:50;;;;;;;5.82;2.90;;;;;;;18.16;78.35;97962.94;5029164;28;20072;-90
2023/05/02 08:25:16;;;;;;;4.32;2.53;;;;;;;18.44;76.89;97993.25;5003354;28;20449;-95
2023/05/02 08:27:41;;;;;;;4.50;2.50;;;;;;;18.64;75.84;97981.06;5018236;28;20137;-94
2023/05/02 08:30:08;;;;;;;3.47;2.35;;;;;;;18.77;73.28;97984.56;5017606;28;20045;-92
2023/05/02 08:32:35;;;;;;;3.30;2.10;;;;;;;18.79;73.18;97993.44;5021935;28;20080;-95
2023/05/02 08:35:02;;;;;;;4.22;2.47;;;;;;;18.85;74.68;97995.69;5027434;28;20042;-92
2023/05/02 08:37:30;;;;;;;3.83;2.10;;;;;;;18.96;73.11;97989.50;5023985;28;20045;-93
2023/05/02 08:39:55;;;;;;;5.80;2.20;;;;;;;19.19;72.94;97987.81;5024473;28;20045;-93
2023/05/02 08:42:22;;;;;;;4.50;2.60;;;;;;;19.35;71.08;97973.16;5021218;28;20045;-94
2023/05/02 08:44:48;;;;;;;3.58;2.55;;;;;;;19.57;67.08;97989.44;5030296;28;20438;-93
2023/05/02 08:47:17;;;;;;;3.90;2.13;;;;;;;19.41;68.45;98000.53;5002918;28;20119;-95
2023/05/02 08:49:44;;;;;;;2.53;1.85;;;;;;;19.25;69.31;97998.09;5018181;28;20038;-94
2023/05/02 08:52:11;;;;;;;3.17;2.47;;;;;;;19.30;69.77;97987.00;5031721;28;20132;-95
2023/05/02 08:54:40;;;;;;;6.15;2.63;;;;;;;19.55;68.31;97985.13;5013612;28;20041;-95
2023/05/02 08:57:07;;;;;;;3.65;2.28;;;;;;;19.80;67.86;98001.19;5016740;28;20525;-94
2023/05/02 08:59:32;;;;;;;3.97;2.13;;;;;;;20.10;66.40;98014.16;5029127;28;20037;-93
2023/05/02 09:02:05;;;;;;;3.42;2.33;;;;;;;20.18;66.56;98013.53;5022283;28;20375;-95
2023/05/02 09:04:33;;;;;;;4.95;2.58;;;;;;;20.28;64.91;97998.34;5022047;28;20046;-94
2023/05/02 09:07:00;;;;;;;6.82;2.83;;;;;;;20.39;66.30;97992.09;5014628;28;20038;-94
2023/05/02 09:09:27;;;;;;;6.00;2.85;;;;;;;20.65;65.18;98021.59;5017575;28;20067;-93
2023/05/02 09:11:55;;;;;;;7.18;4.03;;;;;;;19.16;69.49;98006.88;5007728;28;20124;-94
2023/05/02 09:14:21;;;;;;;6.45;3.60;;;;;;;19.73;67.96;98026.91;5018882;28;20041;-94
2023/05/02 09:16:47;;;;;;;5.10;3.35;;;;;;;19.87;66.83;97998.88;5018139;28;20140;-94
2023/05/02 09:19:23;;;;;;;4.07;2.78;;;;;;;20.45;65.24;98004.22;5005389;28;20042;-94
2023/05/02 09:21:49;;;;;;;5.88;3.25;;;;;;;20.85;64.26;98017.28;5003379;28;20041;-95
2023/05/02 09:24:17;;;;;;;8.18;4.22;;;;;;;21.01;61.69;97993.38;5017188;28;20045;-93
2023/05/02 09:26:58;;;;;;;8.73;3.63;;;;;;;21.26;62.02;98002.19;5023335;28;20557;-94
2023/05/02 09:29:24;;;;;;;6.30;3.40;;;;;;;21.41;60.46;98011.75;5034092;28;20045;-94
2023/05/02 09:31:50;;;;;;;6.50;3.78;;;;;;;21.07;59.77;98003.69;5033899;28;20133;-95
2023/05/02 09:34:16;;;;;;;7.63;3.45;;;;;;;20.61;62.12;97991.25;5033929;28;20132;-94
2023/05/02 09:36:43;;;;;;;7.07;4.13;;;;;;;19.89;63.70;98013.13;4998476;28;20507;-94
2023/05/02 09:39:12;;;;;;;7.07;3.95;;;;;;;19.98;62.35;97998.91;5017427;28;20139;-94
2023/05/02 09:41:41;;;;;;;7.65;4.18;;;;;;;20.03;64.99;98026.38;5029564;28;20041;-94
2023/05/02 09:44:11;;;;;;;8.02;4.20;;;;;;;20.33;65.65;97999.81;5016816;28;20057;-94
2023/05/02 09:46:41;;;;;;;7.63;4.57;;;;;;;20.41;60.94;98013.56;5017280;28;20045;-95
2023/05/02 09:49:08;;;;;;;7.05;3.90;;;;;;;20.84;62.20;98027.22;5024342;28;20398;-95
2023/05/02 09:51:35;;;;;;;8.77;4.10;;;;;;;20.77;60.89;98019.72;5015748;28;20041;-95
2023/05/02 09:54:01;;;;;;;8.82;3.92;;;;;;;20.45;59.19;98001.50;5017147;28;20037;-94
2023/05/02 09:56:27;;;;;;;8.93;3.85;;;;;;;20.40;62.51;98019.94;5016656;28;20045;-95
2023/05/02 09:59:13;;;;;;;10.23;4.15;;;;;;;20.30;65.62;98031.47;5027426;28;20050;-95
2023/05/02 10:01:40;;;;;;;6.90;3.92;;;;;;;20.36;63.49;98023.84;5033373;28;20046;-95
2023/05/02 10:04:10;;;;;;;8.50;4.88;;;;;;;20.66;63.39;98020.59;5019101;28;20062;-95
2023/05/02 10:06:35;;;;;;;6.38;3.90;;;;;;;21.04;62.62;98030.16;5016642;28;20041;-95
2023/05/02 10:09:01;;;;;;;8.77;5.00;;;;;;;21.12;61.93;98003.31;5019457;28;20561;-94
2023/05/02 10:11:28;;;;;;;7.03;4.10;;;;;;;21.39;61.39;98010.16;5016577;28;20053;-94
2023/05/02 10:13:55;;;;;;;7.22;4.35;;;;;;;21.63;60.62;98020.78;5019028;28;20499;-94
2023/05/02 10:16:27;;;;;;;6.63;3.72;;;;;;;21.75;58.09;98035.97;5032784;28;20049;-94
2023/05/02 10:19:02;;;;;;;6.10;3.88;;;;;;;22.28;58.02;98027.00;5015352;28;20037;-94
2023/05/02 10:21:28;;;;;;;9.95;4.60;;;;;;;22.05;58.04;98012.69;5017401;28;20045;-94
2023/05/02 10:23:54;;;;;;;9.43;4.50;;;;;;;22.12;59.29;98016.56;5017774;28;20487;-94
2023/05/02 10:26:22;;;;;;;10.50;5.45;;;;;;;22.00;58.25;98015.78;5017409;28;20048;-94
2023/05/02 10:28:49;;;;;;;7.70;4.53;;;;;;;22.10;58.78;98013.16;5027934;28;20053;-94
2023/05/02 10:31:16;;;;;;;8.48;5.10;;;;;;;21.93;59.17;98012.75;5023388;28;20395;-94
2023/05/02 10:33:45;;;;;;;8.57;5.05;;;;;;;21.51;60.45;98004.59;5033379;28;20418;-93
2023/05/02 10:36:12;;;;;;;9.55;5.03;;;;;;;21.79;58.12;97994.13;5025126;28;20040;-93
2023/05/02 10:38:38;;;;;;;9.95;5.07;;;;;;;21.49;61.71;98009.28;5038170;28;20052;-94
2023/05/02 10:41:08;;;;;;;8.38;4.60;;;;;;;20.84;64.07;97981.28;5025269;28;20042;-93
2023/05/02 10:43:36;;;;;;;10.25;4.68;;;;;;;21.05;62.90;97986.75;5026584;28;20045;-94
2023/05/02 10:46:02;;;;;;;6.70;4.83;;;;;;;19.75;64.06;98024.09;5023316;28;20037;-93
2023/05/02 10:48:29;;;;;;;8.10;4.47;;;;;;;19.91;64.26;98005.75;5024151;28;20056;-94
2023/05/02 10:51:00;;;;;;;8.73;4.97;;;;;;;19.53;66.25;98016.75;5031853;28;20411;-94
2023/05/02 10:53:28;;;;;;;11.32;4.88;;;;;;;20.00;66.07;98023.06;5033787;28;20044;-93
2023/05/02 10:56:17;;;;;;;8.27;4.97;;;;;;;19.75;67.00;98027.66;5023127;28;20049;-94
2023/05/02 10:58:44;;;;;;;9.55;4.97;;;;;;;20.05;67.46;98016.31;5010163;28;20492;-93
2023/05/02 11:01:36;;;;;;;7.85;4.63;;;;;;;20.34;66.48;98025.81;5022217;28;20589;-94
2023/05/02 11:04:03;;;;;;;6.55;4.05;;;;;;;20.61;64.25;98020.97;5033547;28;20041;-94
2023/05/02 11:06:33;;;;;;;9.80;4.10;;;;;;;20.66;61.83;97986.31;5023885;28;20517;-96
2023/05/02 11:09:32;;;;;;;6.70;3.92;;;;;;;20.81;61.87;98002.28;5026790;28;20494;-94
2023/05/02 11:11:58;;;;;;;7.95;4.40;;;;;;;20.92;60.83;98013.06;4964367;28;20586;-96
2023/05/02 11:14:43;;;;;;;6.13;3.33;;;;;;;20.87;58.77;98009.91;4960016;29;20047;-94
2023/05/02 11:17:09;;;;;;;6.32;3.88;;;;;;;20.72;58.59;98014.69;4944393;29;20047;-94
2023/05/02 11:20:27;;;;;;;6.45;3.40;;;;;;;20.80;59.20;98012.25;4944812;29;20187;-94
2023/05/02 11:23:20;;;;;;;5.93;3.45;;;;;;;21.24;57.75;97998.75;4946126;28;20083;-95
2023/05/02 11:25:48;;;;;;;5.53;3.35;;;;;;;21.73;57.67;97983.84;4963093;28;20093;-94
2023/05/02 11:28:39;;;;;;;6.07;3.13;;;;;;;22.22;57.50;98013.94;4963520;28;20098;-94
2023/05/02 11:31:06;;;;;;;4.45;2.97;;;;;;;22.29;57.71;98004.31;4963320;28;20118;-93
2023/05/02 11:33:32;;;;;;;5.63;3.45;;;;;;;21.18;59.52;98012.78;4963245;28;20047;-94